Ag Nektarios Aiginas — SX7083 — position and weather

sailwx.info

Track history (hours):
 
Tides and Currents Weather Stations Pressure Air Temp Water Temp Dewpoint Dewpoint Depression Visibility Wind Speed Wind Dir Waves Ship Positions

Ag Nektarios Aiginas

Last reported at 2015-Mar-29 16:33 UTC. Time now 2015-Mar-30 02:22 UTC.
Position N 37°56' E 023°37'.

Length 75 m; draft 2.7 m.

Type: Passenger vessel. MMSI: 237021400.

Date/timePositionNaut miles runAvg speedWind from/ knotsBaromVisibWave heightAir tempDewpointWater temp
2015-Mar-29 16:33N 37°56' E 023°37'1313.0
2015-Mar-29 15:33N 37°47' E 023°26'2 2.2
2015-Mar-29 14:33N 37°45' E 023°25'1312.9
2015-Mar-29 13:33N 37°54' E 023°36'2 2.3
2015-Mar-29 12:33N 37°56' E 023°37'1312.9
2015-Mar-29 11:33N 37°47' E 023°26'2 2.3
2015-Mar-29 10:33N 37°45' E 023°25'1212.4
2015-Mar-29 09:33N 37°54' E 023°35'3 3.5
2015-Mar-29 08:33N 37°57' E 023°39'1110.8
2015-Mar-29 07:33N 37°49' E 023°30'4 4.1
2015-Mar-29 06:33N 37°46' E 023°25'1312.9
2015-Mar-29 05:33N 37°56' E 023°36'2 1.9
2015-Mar-29 04:33N 37°57' E 023°38'0 0.0
2015-Mar-28 17:33N 37°56' E 023°38'1313.0
2015-Mar-28 16:33N 37°47' E 023°27'3 2.5
2015-Mar-28 15:33N 37°45' E 023°25'1312.8
2015-Mar-28 14:33N 37°55' E 023°35'3 3.3
2015-Mar-28 13:33N 37°57' E 023°39'0 0.0
2015-Mar-28 12:33N 37°57' E 023°39'0 0.0
2015-Mar-28 11:33N 37°57' E 023°39'0 0.0
2015-Mar-28 10:33N 37°57' E 023°39'0 0.2
2015-Mar-28 09:33N 37°57' E 023°38'1312.5
2015-Mar-28 08:33N 37°48' E 023°27'1 1.2
2015-Mar-28 07:33N 37°47' E 023°26'1212.5
2015-Mar-28 06:33N 37°56' E 023°37'2 1.5
2015-Mar-28 05:33N 37°57' E 023°38'3 0.2
2015-Mar-27 17:34N 37°54' E 023°37'1111.1
2015-Mar-27 16:33N 37°47' E 023°26'1 1.0
2015-Mar-27 15:32N 37°46' E 023°25'1212.3
2015-Mar-27 14:33N 37°55' E 023°35'1 1.4
2015-Mar-27 13:33N 37°54' E 023°37'1111.0
2015-Mar-27 12:33N 37°46' E 023°27'0 0.2
2015-Mar-27 11:33N 37°47' E 023°26'1212.4
2015-Mar-27 10:33N 37°56' E 023°37'4 4.3
2015-Mar-27 09:34N 37°52' E 023°37'10 9.8
2015-Mar-27 08:33N 37°46' E 023°26'3 2.7
2015-Mar-27 07:30N 37°47' E 023°30'1010.9
2015-Mar-27 06:33N 37°56' E 023°37'4 0.3
2015-Mar-26 17:33N 37°52' E 023°36'10 9.9
2015-Mar-26 16:33N 37°47' E 023°26'2 1.9
2015-Mar-26 15:30N 37°47' E 023°28'1010.8
2015-Mar-26 14:33N 37°55' E 023°36'1 0.6
2015-Mar-26 13:33N 37°55' E 023°37'1111.4
2015-Mar-26 12:33N 37°47' E 023°26'1 1.0
2015-Mar-26 11:31N 37°46' E 023°25'1212.4
2015-Mar-26 10:33N 37°55' E 023°35'2 1.8
2015-Mar-26 09:31N 37°56' E 023°37'1111.8
2015-Mar-26 08:33N 37°48' E 023°27'2 1.3
2015-Mar-26 07:17N 37°48' E 023°29'913.0
2015-Mar-26 06:33N 37°56' E 023°36'2 1.9
2015-Mar-26 05:28N 37°57' E 023°39'1 0.1
2015-Mar-25 17:33N 37°56' E 023°37'1312.8
2015-Mar-25 16:33N 37°47' E 023°26'1 1.3
2015-Mar-25 15:27N 37°46' E 023°25'1213.3
2015-Mar-25 14:33N 37°54' E 023°35'3 2.5
2015-Mar-25 13:33N 37°56' E 023°37'1312.9
2015-Mar-25 12:34N 37°47' E 023°26'2 2.3
2015-Mar-25 11:31N 37°45' E 023°25'1313.0
2015-Mar-25 10:33N 37°55' E 023°35'3 2.8
2015-Mar-25 09:23N 37°57' E 023°38'1112.6
2015-Mar-25 08:33N 37°49' E 023°30'3 2.5
2015-Mar-25 07:31N 37°47' E 023°27'1313.0
2015-Mar-25 06:33N 37°56' E 023°38'0 0.0
2015-Mar-24 17:33N 37°56' E 023°38'1313.2
2015-Mar-24 16:33N 37°47' E 023°26'2 1.5
2015-Mar-24 15:29N 37°46' E 023°25'1213.1
2015-Mar-24 14:33N 37°55' E 023°36'3 2.8
2015-Mar-24 13:33N 37°57' E 023°38'1313.1
2015-Mar-24 12:33N 37°47' E 023°26'2 1.6
2015-Mar-24 11:29N 37°46' E 023°25'1213.2
2015-Mar-24 10:33N 37°55' E 023°36'3 2.4
2015-Mar-24 09:28N 37°57' E 023°38'1112.5
2015-Mar-24 08:33N 37°48' E 023°29'1 0.9
2015-Mar-24 07:23N 37°48' E 023°28'1113.3
2015-Mar-24 06:33N 37°56' E 023°37'1 0.0
2015-Mar-23 17:33N 37°56' E 023°37'1312.5
2015-Mar-23 16:33N 37°47' E 023°26'1 1.2
2015-Mar-23 15:28N 37°46' E 023°25'1213.1
2015-Mar-23 14:33N 37°55' E 023°36'2 1.9
2015-Mar-23 13:32N 37°56' E 023°37'1313.1
2015-Mar-23 12:33N 37°47' E 023°26'1 0.6
2015-Mar-23 11:26N 37°47' E 023°26'1213.2
2015-Mar-23 10:33N 37°55' E 023°36'3 2.6
2015-Mar-23 09:32N 37°57' E 023°38'1211.7
2015-Mar-23 08:33N 37°48' E 023°29'2 1.4
2015-Mar-23 07:23N 37°47' E 023°27'1113.2
2015-Mar-23 06:33N 37°55' E 023°36'1 0.1
2015-Mar-22 17:33N 37°56' E 023°37'1313.2
2015-Mar-22 16:33N 37°47' E 023°26'1 0.7
2015-Mar-22 15:27N 37°46' E 023°25'1213.0
2015-Mar-22 14:33N 37°55' E 023°36'2 2.2
2015-Mar-22 13:32N 37°56' E 023°37'1313.2
2015-Mar-22 12:32N 37°47' E 023°26'2 2.0
2015-Mar-22 11:18N 37°48' E 023°28'1013.0
2015-Mar-22 10:34N 37°55' E 023°36'2 2.4
2015-Mar-22 09:33N 37°57' E 023°38'1111.3
2015-Mar-22 08:33N 37°48' E 023°29'1 0.6
2015-Mar-22 07:20N 37°48' E 023°28'1013.2
2015-Mar-22 06:33N 37°56' E 023°37'1 0.1
2015-Mar-21 17:33N 37°56' E 023°38'1313.2
2015-Mar-21 16:33N 37°47' E 023°26'2 1.4
2015-Mar-21 15:30N 37°46' E 023°25'1313.3
2015-Mar-21 14:33N 37°55' E 023°36'3 0.5
2015-Mar-21 09:32N 37°57' E 023°38'1212.1
2015-Mar-21 08:33N 37°48' E 023°28'1 0.6
2015-Mar-21 07:24N 37°47' E 023°27'1113.0
2015-Mar-21 06:32N 37°56' E 023°37'1 0.0
2015-Mar-20 17:33N 37°55' E 023°36'1212.6
2015-Mar-20 16:33N 37°46' E 023°25'4 2.8
2015-Mar-20 15:09N 37°48' E 023°29'813.4
2015-Mar-20 14:33N 37°55' E 023°36'1 1.2
2015-Mar-20 13:33N 37°56' E 023°37'1312.7
2015-Mar-20 12:33N 37°46' E 023°25'3 1.9
2015-Mar-20 11:13N 37°48' E 023°28'913.1
2015-Mar-20 10:33N 37°54' E 023°36'3 3.0
2015-Mar-20 09:30N 37°57' E 023°38'1112.0
2015-Mar-20 08:33N 37°48' E 023°29'1 1.0
2015-Mar-20 07:21N 37°48' E 023°27'1113.1
2015-Mar-20 06:32N 37°56' E 023°37'2 0.1
2015-Mar-19 17:33N 37°57' E 023°38'  
Track history (hours):
 
Tides and Currents Weather Stations Pressure Air Temp Water Temp Dewpoint Dewpoint Depression Visibility Wind Speed Wind Dir Waves Ship Positions

Ag Nektarios Aiginas

Last reported at 2015-Mar-29 16:33 UTC. Time now 2015-Mar-30 02:22 UTC.
Position N 37°56' E 023°37'.

Length 75 m; draft 2.7 m.

Type: Passenger vessel. MMSI: 237021400.

Date/timePositionNaut miles runAvg speedWind from/ knotsBaromVisibWave heightAir tempDewpointWater temp
2015-Mar-29 16:33N 37°56' E 023°37'1313.0
2015-Mar-29 15:33N 37°47' E 023°26'2 2.2
2015-Mar-29 14:33N 37°45' E 023°25'1312.9
2015-Mar-29 13:33N 37°54' E 023°36'2 2.3
2015-Mar-29 12:33N 37°56' E 023°37'1312.9
2015-Mar-29 11:33N 37°47' E 023°26'2 2.3
2015-Mar-29 10:33N 37°45' E 023°25'1212.4
2015-Mar-29 09:33N 37°54' E 023°35'3 3.5
2015-Mar-29 08:33N 37°57' E 023°39'1110.8
2015-Mar-29 07:33N 37°49' E 023°30'4 4.1
2015-Mar-29 06:33N 37°46' E 023°25'1312.9
2015-Mar-29 05:33N 37°56' E 023°36'2 1.9
2015-Mar-29 04:33N 37°57' E 023°38'0 0.0
2015-Mar-28 17:33N 37°56' E 023°38'1313.0
2015-Mar-28 16:33N 37°47' E 023°27'3 2.5
2015-Mar-28 15:33N 37°45' E 023°25'1312.8
2015-Mar-28 14:33N 37°55' E 023°35'3 3.3
2015-Mar-28 13:33N 37°57' E 023°39'0 0.0
2015-Mar-28 12:33N 37°57' E 023°39'0 0.0
2015-Mar-28 11:33N 37°57' E 023°39'0 0.0
2015-Mar-28 10:33N 37°57' E 023°39'0 0.2
2015-Mar-28 09:33N 37°57' E 023°38'1312.5
2015-Mar-28 08:33N 37°48' E 023°27'1 1.2
2015-Mar-28 07:33N 37°47' E 023°26'1212.5
2015-Mar-28 06:33N 37°56' E 023°37'2 1.5
2015-Mar-28 05:33N 37°57' E 023°38'3 0.2
2015-Mar-27 17:34N 37°54' E 023°37'1111.1
2015-Mar-27 16:33N 37°47' E 023°26'1 1.0
2015-Mar-27 15:32N 37°46' E 023°25'1212.3
2015-Mar-27 14:33N 37°55' E 023°35'1 1.4
2015-Mar-27 13:33N 37°54' E 023°37'1111.0
2015-Mar-27 12:33N 37°46' E 023°27'0 0.2
2015-Mar-27 11:33N 37°47' E 023°26'1212.4
2015-Mar-27 10:33N 37°56' E 023°37'4 4.3
2015-Mar-27 09:34N 37°52' E 023°37'10 9.8
2015-Mar-27 08:33N 37°46' E 023°26'3 2.7
2015-Mar-27 07:30N 37°47' E 023°30'1010.9
2015-Mar-27 06:33N 37°56' E 023°37'4 0.3
2015-Mar-26 17:33N 37°52' E 023°36'10 9.9
2015-Mar-26 16:33N 37°47' E 023°26'2 1.9
2015-Mar-26 15:30N 37°47' E 023°28'1010.8
2015-Mar-26 14:33N 37°55' E 023°36'1 0.6
2015-Mar-26 13:33N 37°55' E 023°37'1111.4
2015-Mar-26 12:33N 37°47' E 023°26'1 1.0
2015-Mar-26 11:31N 37°46' E 023°25'1212.4
2015-Mar-26 10:33N 37°55' E 023°35'2 1.8
2015-Mar-26 09:31N 37°56' E 023°37'1111.8
2015-Mar-26 08:33N 37°48' E 023°27'2 1.3
2015-Mar-26 07:17N 37°48' E 023°29'913.0
2015-Mar-26 06:33N 37°56' E 023°36'2 1.9
2015-Mar-26 05:28N 37°57' E 023°39'1 0.1
2015-Mar-25 17:33N 37°56' E 023°37'1312.8
2015-Mar-25 16:33N 37°47' E 023°26'1 1.3
2015-Mar-25 15:27N 37°46' E 023°25'1213.3
2015-Mar-25 14:33N 37°54' E 023°35'3 2.5
2015-Mar-25 13:33N 37°56' E 023°37'1312.9
2015-Mar-25 12:34N 37°47' E 023°26'2 2.3
2015-Mar-25 11:31N 37°45' E 023°25'1313.0
2015-Mar-25 10:33N 37°55' E 023°35'3 2.8
2015-Mar-25 09:23N 37°57' E 023°38'1112.6
2015-Mar-25 08:33N 37°49' E 023°30'3 2.5
2015-Mar-25 07:31N 37°47' E 023°27'1313.0
2015-Mar-25 06:33N 37°56' E 023°38'0 0.0
2015-Mar-24 17:33N 37°56' E 023°38'1313.2
2015-Mar-24 16:33N 37°47' E 023°26'2 1.5
2015-Mar-24 15:29N 37°46' E 023°25'1213.1
2015-Mar-24 14:33N 37°55' E 023°36'3 2.8
2015-Mar-24 13:33N 37°57' E 023°38'1313.1
2015-Mar-24 12:33N 37°47' E 023°26'2 1.6
2015-Mar-24 11:29N 37°46' E 023°25'1213.2
2015-Mar-24 10:33N 37°55' E 023°36'3 2.4
2015-Mar-24 09:28N 37°57' E 023°38'1112.5
2015-Mar-24 08:33N 37°48' E 023°29'1 0.9
2015-Mar-24 07:23N 37°48' E 023°28'1113.3
2015-Mar-24 06:33N 37°56' E 023°37'1 0.0
2015-Mar-23 17:33N 37°56' E 023°37'1312.5
2015-Mar-23 16:33N 37°47' E 023°26'1 1.2
2015-Mar-23 15:28N 37°46' E 023°25'1213.1
2015-Mar-23 14:33N 37°55' E 023°36'2 1.9
2015-Mar-23 13:32N 37°56' E 023°37'1313.1
2015-Mar-23 12:33N 37°47' E 023°26'1 0.6
2015-Mar-23 11:26N 37°47' E 023°26'1213.2
2015-Mar-23 10:33N 37°55' E 023°36'3 2.6
2015-Mar-23 09:32N 37°57' E 023°38'1211.7
2015-Mar-23 08:33N 37°48' E 023°29'2 1.4
2015-Mar-23 07:23N 37°47' E 023°27'1113.2
2015-Mar-23 06:33N 37°55' E 023°36'1 0.1
2015-Mar-22 17:33N 37°56' E 023°37'1313.2
2015-Mar-22 16:33N 37°47' E 023°26'1 0.7
2015-Mar-22 15:27N 37°46' E 023°25'1213.0
2015-Mar-22 14:33N 37°55' E 023°36'2 2.2
2015-Mar-22 13:32N 37°56' E 023°37'1313.2
2015-Mar-22 12:32N 37°47' E 023°26'2 2.0
2015-Mar-22 11:18N 37°48' E 023°28'1013.0
2015-Mar-22 10:34N 37°55' E 023°36'2 2.4
2015-Mar-22 09:33N 37°57' E 023°38'1111.3
2015-Mar-22 08:33N 37°48' E 023°29'1 0.6
2015-Mar-22 07:20N 37°48' E 023°28'1013.2
2015-Mar-22 06:33N 37°56' E 023°37'1 0.1
2015-Mar-21 17:33N 37°56' E 023°38'1313.2
2015-Mar-21 16:33N 37°47' E 023°26'2 1.4
2015-Mar-21 15:30N 37°46' E 023°25'1313.3
2015-Mar-21 14:33N 37°55' E 023°36'3 0.5
2015-Mar-21 09:32N 37°57' E 023°38'1212.1
2015-Mar-21 08:33N 37°48' E 023°28'1 0.6
2015-Mar-21 07:24N 37°47' E 023°27'1113.0
2015-Mar-21 06:32N 37°56' E 023°37'1 0.0
2015-Mar-20 17:33N 37°55' E 023°36'1212.6
2015-Mar-20 16:33N 37°46' E 023°25'4 2.8
2015-Mar-20 15:09N 37°48' E 023°29'813.4
2015-Mar-20 14:33N 37°55' E 023°36'1 1.2
2015-Mar-20 13:33N 37°56' E 023°37'1312.7
2015-Mar-20 12:33N 37°46' E 023°25'3 1.9
2015-Mar-20 11:13N 37°48' E 023°28'913.1
2015-Mar-20 10:33N 37°54' E 023°36'3 3.0
2015-Mar-20 09:30N 37°57' E 023°38'1112.0
2015-Mar-20 08:33N 37°48' E 023°29'1 1.0
2015-Mar-20 07:21N 37°48' E 023°27'1113.1
2015-Mar-20 06:32N 37°56' E 023°37'2 0.1
2015-Mar-19 17:33N 37°57' E 023°38'  

Dump ship's entire track history